createdAt,value
2023-03-04T00:00:50.816Z,5.19
2023-03-04T00:03:19.765Z,5.16
2023-03-04T00:05:47.823Z,5.18
2023-03-04T00:08:16.317Z,5.17
2023-03-04T00:10:45.798Z,5.21
2023-03-04T00:13:13.488Z,5.20
2023-03-04T00:15:41.012Z,5.20
2023-03-04T00:18:09.365Z,5.22
2023-03-04T00:20:42.319Z,5.25
2023-03-04T00:23:09.913Z,5.19
2023-03-04T00:25:38.292Z,5.20
2023-03-04T00:28:09.371Z,5.20
2023-03-04T00:30:37.821Z,5.17
2023-03-04T00:33:05.447Z,5.19
2023-03-04T00:35:33.039Z,5.18
2023-03-04T00:38:01.897Z,5.22
2023-03-04T00:40:29.480Z,5.16
2023-03-04T00:42:58.301Z,5.19
2023-03-04T00:45:25.782Z,5.23
2023-03-04T00:47:53.333Z,5.16
2023-03-04T00:50:21.134Z,5.16
2023-03-04T00:52:48.679Z,5.20
2023-03-04T00:55:18.370Z,5.20
2023-03-04T00:57:46.297Z,5.21
2023-03-04T01:00:15.137Z,5.18
2023-03-04T01:02:43.142Z,5.19
2023-03-04T01:05:11.039Z,5.21
2023-03-04T01:07:39.154Z,5.20
2023-03-04T01:10:09.147Z,5.23
2023-03-04T01:12:37.997Z,5.22
2023-03-04T01:15:06.347Z,5.24
2023-03-04T01:17:33.900Z,5.24
2023-03-04T01:20:02.307Z,5.23
2023-03-04T01:22:29.830Z,5.23
2023-03-04T01:24:57.670Z,5.22
2023-03-04T01:27:28.302Z,5.24
2023-03-04T01:29:58.112Z,5.21
2023-03-04T01:32:25.735Z,5.20
2023-03-04T01:34:54.368Z,5.17
2023-03-04T01:37:21.980Z,5.17
2023-03-04T01:39:49.597Z,5.17
2023-03-04T01:42:21.420Z,5.11
2023-03-04T01:44:49.885Z,5.08
2023-03-04T01:47:19.781Z,5.09
2023-03-04T01:49:51.800Z,5.13
2023-03-04T01:52:23.304Z,5.10
2023-03-04T01:54:51.429Z,5.06
2023-03-04T01:57:21.131Z,5.06
2023-03-04T02:00:09.369Z,5.09
2023-03-04T02:02:43.138Z,5.10
2023-03-04T02:05:11.196Z,5.09
2023-03-04T02:07:39.017Z,5.12
2023-03-04T02:10:07.543Z,5.12
2023-03-04T02:12:35.362Z,5.14
2023-03-04T02:15:04.257Z,5.12
2023-03-04T02:17:34.391Z,5.14
2023-03-04T02:20:15.309Z,5.15
2023-03-04T02:22:51.348Z,5.14
2023-03-04T02:25:48.579Z,5.14
2023-03-04T02:28:18.310Z,5.13
2023-03-04T02:30:47.376Z,5.09
2023-03-04T02:33:18.531Z,5.08
2023-03-04T02:35:47.037Z,5.05
2023-03-04T02:38:15.033Z,5.08
2023-03-04T02:40:44.829Z,5.06
2023-03-04T02:46:17.375Z,5.07
2023-03-04T02:49:11.305Z,5.10
2023-03-04T02:51:40.920Z,5.09
2023-03-04T02:54:16.307Z,5.08
2023-03-04T02:56:46.973Z,5.08
2023-03-04T02:59:17.105Z,5.09
2023-03-04T03:01:46.413Z,5.13
2023-03-04T03:04:15.420Z,5.18
2023-03-04T03:06:45.757Z,5.11
2023-03-04T03:09:13.880Z,5.12
2023-03-04T03:11:41.394Z,5.09
2023-03-04T03:14:09.638Z,5.09
2023-03-04T03:16:39.766Z,5.14
2023-03-04T03:19:08.641Z,5.07
2023-03-04T03:21:41.300Z,5.08
2023-03-04T03:24:12.750Z,5.04
2023-03-04T03:26:40.885Z,5.12
2023-03-04T03:29:08.989Z,5.06
2023-03-04T03:31:36.714Z,5.06
2023-03-04T03:34:04.335Z,5.07
2023-03-04T03:36:33.247Z,5.10
2023-03-04T03:39:00.988Z,5.09
2023-03-04T03:41:28.750Z,5.07
2023-03-04T03:43:56.900Z,5.09
2023-03-04T03:46:26.298Z,5.10
2023-03-04T03:48:56.663Z,5.12
2023-03-04T03:51:24.307Z,5.11
2023-03-04T03:53:53.219Z,5.13
2023-03-04T03:56:22.317Z,5.13
2023-03-04T03:58:49.884Z,5.13
2023-03-04T04:01:18.335Z,5.14
2023-03-04T04:03:45.815Z,5.15
2023-03-04T04:06:13.401Z,5.09
2023-03-04T04:08:41.109Z,5.12
2023-03-04T04:11:11.368Z,5.11
2023-03-04T04:13:39.452Z,5.09
2023-03-04T04:16:10.415Z,5.11
2023-03-04T04:18:38.306Z,5.09
2023-03-04T04:21:07.392Z,5.10
2023-03-04T04:23:36.331Z,5.12
2023-03-04T04:26:03.870Z,5.06
2023-03-04T04:28:34.510Z,5.06
2023-03-04T04:31:02.380Z,5.08
2023-03-04T04:33:29.976Z,5.13
2023-03-04T04:35:59.358Z,5.06
2023-03-04T04:38:27.079Z,5.06
2023-03-04T04:40:54.712Z,5.09
2023-03-04T04:43:22.230Z,5.11
2023-03-04T04:45:51.143Z,5.09
2023-03-04T04:48:20.316Z,5.11
2023-03-04T04:50:47.815Z,5.09
2023-03-04T04:53:16.739Z,5.15
2023-03-04T04:55:45.443Z,5.07
2023-03-04T04:58:12.949Z,5.04
2023-03-04T05:00:40.603Z,5.04
2023-03-04T05:03:09.663Z,5.05
2023-03-04T05:05:37.653Z,5.05
2023-03-04T05:08:05.609Z,5.06
2023-03-04T05:10:33.823Z,5.06
2023-03-04T05:13:01.774Z,5.08
2023-03-04T05:15:29.353Z,5.08
2023-03-04T05:17:57.357Z,5.09
2023-03-04T05:20:27.066Z,5.11
2023-03-04T05:22:54.671Z,5.09
2023-03-04T05:25:23.300Z,5.10
2023-03-04T05:27:50.790Z,5.10
2023-03-04T05:30:19.472Z,5.12
2023-03-04T05:32:47.363Z,5.09
2023-03-04T05:35:15.736Z,5.09
2023-03-04T05:38:10.972Z,5.09
2023-03-04T05:40:38.875Z,5.08
2023-03-04T05:43:06.849Z,5.07
2023-03-04T05:45:36.333Z,5.07
2023-03-04T05:48:04.443Z,5.07
2023-03-04T05:50:33.305Z,5.08
2023-03-04T05:53:01.124Z,5.11
2023-03-04T05:55:30.173Z,5.11
2023-03-04T06:00:52.875Z,5.14
2023-03-04T06:03:22.438Z,5.11
2023-03-04T06:05:52.390Z,5.08
2023-03-04T06:08:19.896Z,5.06
2023-03-04T06:10:49.100Z,5.04
2023-03-04T06:13:16.637Z,5.05
2023-03-04T06:15:44.448Z,5.05
2023-03-04T06:18:13.325Z,5.04
2023-03-04T06:20:41.095Z,5.07
2023-03-04T06:23:08.812Z,5.01
2023-03-04T06:25:36.443Z,5.01
2023-03-04T06:28:05.474Z,5.01
2023-03-04T06:30:33.103Z,5.05
2023-03-04T06:33:00.771Z,5.02
2023-03-04T06:35:29.338Z,5.03
2023-03-04T06:37:58.312Z,5.03
2023-03-04T06:40:25.848Z,5.04
2023-03-04T06:42:54.758Z,5.02
2023-03-04T06:45:23.656Z,5.03
2023-03-04T06:47:53.314Z,5.03
2023-03-04T06:50:21.049Z,5.04
2023-03-04T06:52:49.329Z,5.05
2023-03-04T06:55:17.012Z,5.05
2023-03-04T06:57:45.526Z,5.07
2023-03-04T07:00:16.100Z,5.05
2023-03-04T07:02:44.923Z,5.04
2023-03-04T07:05:12.748Z,5.04
2023-03-04T07:07:40.253Z,5.03
2023-03-04T07:10:10.009Z,5.03
2023-03-04T07:12:37.588Z,5.04
2023-03-04T07:15:06.817Z,5.03
2023-03-04T07:17:36.322Z,5.00
2023-03-04T07:20:06.380Z,5.00
2023-03-04T07:22:34.310Z,5.01
2023-03-04T07:25:01.817Z,5.04
2023-03-04T07:27:29.339Z,5.00
2023-03-04T07:29:57.384Z,5.03
2023-03-04T07:32:26.902Z,5.03
2023-03-04T07:34:54.481Z,5.05
2023-03-04T07:37:23.532Z,5.12
2023-03-04T07:39:51.040Z,5.08
2023-03-04T07:42:19.755Z,5.11
2023-03-04T07:44:55.135Z,5.10
2023-03-04T07:47:23.350Z,5.16
2023-03-04T07:49:53.209Z,5.15
2023-03-04T07:52:23.112Z,5.20
2023-03-04T07:54:51.282Z,5.21
2023-03-04T07:57:23.315Z,5.23
2023-03-04T07:59:50.794Z,5.28
2023-03-04T08:02:20.935Z,5.29
2023-03-04T08:04:49.319Z,5.34
2023-03-04T08:07:16.967Z,5.42
2023-03-04T08:09:45.791Z,5.41
2023-03-04T08:12:13.302Z,5.43
2023-03-04T08:14:41.812Z,5.50
2023-03-04T08:17:09.770Z,5.48
2023-03-04T08:19:37.409Z,5.49
2023-03-04T08:22:05.788Z,5.59
2023-03-04T08:24:33.638Z,5.51
2023-03-04T08:27:02.541Z,5.52
2023-03-04T08:29:32.319Z,5.59
2023-03-04T08:32:00.880Z,5.58
2023-03-04T08:34:29.903Z,5.58
2023-03-04T08:36:57.654Z,5.58
2023-03-04T08:39:25.887Z,5.60
2023-03-04T08:41:53.430Z,5.61
2023-03-04T08:44:25.100Z,5.66
2023-03-04T08:46:54.381Z,5.69
2023-03-04T08:49:21.955Z,5.68
2023-03-04T08:51:49.802Z,5.64
2023-03-04T08:54:18.836Z,5.63
2023-03-04T08:56:47.314Z,5.69
2023-03-04T08:59:14.814Z,5.67
2023-03-04T09:01:43.930Z,5.69
2023-03-04T09:04:13.330Z,5.69
2023-03-04T09:06:41.367Z,5.73
2023-03-04T09:09:09.191Z,5.75
2023-03-04T09:11:36.970Z,5.81
2023-03-04T09:14:04.737Z,5.82
2023-03-04T09:16:32.220Z,5.84
2023-03-04T09:19:01.183Z,5.91
2023-03-04T09:21:29.332Z,5.89
2023-03-04T09:23:56.857Z,5.93
2023-03-04T09:26:28.090Z,5.98
2023-03-04T09:28:58.463Z,6.00
2023-03-04T09:31:27.584Z,6.07
2023-03-04T09:33:57.306Z,6.11
2023-03-04T09:36:26.315Z,6.11
2023-03-04T09:38:55.802Z,6.16
2023-03-04T09:41:26.922Z,6.24
2023-03-04T09:43:55.487Z,6.30
2023-03-04T09:46:31.743Z,6.37
2023-03-04T09:48:59.527Z,6.42
2023-03-04T09:51:42.902Z,6.38
2023-03-04T09:54:15.386Z,6.35
2023-03-04T09:56:44.462Z,6.36
2023-03-04T09:59:19.294Z,6.36
2023-03-04T10:01:50.804Z,6.36
2023-03-04T10:04:23.510Z,6.38
2023-03-04T10:06:55.104Z,6.38
2023-03-04T10:09:26.924Z,6.43
2023-03-04T10:12:03.932Z,6.46
2023-03-04T10:14:36.074Z,6.55
2023-03-04T10:17:09.749Z,6.51
2023-03-04T10:19:55.177Z,6.52
2023-03-04T10:22:30.841Z,6.52
2023-03-04T10:25:02.345Z,6.52
2023-03-04T10:27:31.335Z,6.52
2023-03-04T10:30:01.586Z,6.58
2023-03-04T10:32:29.943Z,6.61
2023-03-04T10:34:57.665Z,6.62
2023-03-04T10:37:44.896Z,6.74
2023-03-04T10:40:21.670Z,6.82
2023-03-04T10:42:50.950Z,6.87
2023-03-04T10:45:24.076Z,6.86
2023-03-04T10:47:58.301Z,6.83
2023-03-04T10:50:28.376Z,6.85
2023-03-04T10:52:57.769Z,6.86
2023-03-04T10:55:28.482Z,6.88
2023-03-04T10:58:03.186Z,6.88
2023-03-04T11:00:33.240Z,6.89
2023-03-04T11:03:25.961Z,6.95
2023-03-04T11:06:11.377Z,6.85
2023-03-04T11:08:43.921Z,6.82
2023-03-04T11:11:27.378Z,6.84
2023-03-04T11:14:01.204Z,6.76
2023-03-04T11:16:30.938Z,6.76
2023-03-04T11:19:01.449Z,6.73
2023-03-04T11:21:32.838Z,6.78
2023-03-04T11:24:04.494Z,6.77
2023-03-04T11:26:37.347Z,6.77
2023-03-04T11:29:15.278Z,6.78
2023-03-04T11:31:50.120Z,6.76
2023-03-04T11:34:30.875Z,6.79
2023-03-04T11:37:03.465Z,6.85
2023-03-04T11:39:38.321Z,6.91
2023-03-04T11:42:17.371Z,6.96
2023-03-04T11:44:45.177Z,7.00
2023-03-04T11:47:35.901Z,6.93
2023-03-04T11:50:16.386Z,6.92
2023-03-04T11:53:05.440Z,6.86
2023-03-04T11:55:41.901Z,6.77
2023-03-04T11:58:26.483Z,6.70
2023-03-04T12:01:02.179Z,6.65
2023-03-04T12:03:53.441Z,6.57
2023-03-04T12:06:34.450Z,6.57
2023-03-04T12:09:16.166Z,6.50
2023-03-04T12:11:56.785Z,6.48
2023-03-04T12:14:29.341Z,6.45
2023-03-04T12:17:32.330Z,6.42
2023-03-04T12:20:31.117Z,6.33
2023-03-04T12:23:11.793Z,6.39
2023-03-04T12:25:43.297Z,6.44
2023-03-04T12:28:52.468Z,6.53
2023-03-04T12:31:34.694Z,6.57
2023-03-04T12:34:44.307Z,6.63
2023-03-04T12:37:23.310Z,6.70
2023-03-04T12:40:07.065Z,6.83
2023-03-04T12:42:43.397Z,6.90
2023-03-04T12:45:22.150Z,6.99
2023-03-04T12:48:03.427Z,7.00
2023-03-04T12:51:02.053Z,7.05
2023-03-04T12:53:40.323Z,7.09
2023-03-04T12:56:22.937Z,7.12
2023-03-04T12:58:50.942Z,7.01
2023-03-04T13:01:27.346Z,6.98
2023-03-04T13:04:05.391Z,6.99
2023-03-04T13:06:43.533Z,6.95
2023-03-04T13:09:20.784Z,6.95
2023-03-04T13:12:03.324Z,6.96
2023-03-04T13:14:33.142Z,6.90
2023-03-04T13:17:02.333Z,6.90
2023-03-04T13:19:50.788Z,6.94
2023-03-04T13:22:35.352Z,6.97
2023-03-04T13:25:34.220Z,6.97
2023-03-04T13:28:20.775Z,7.00
2023-03-04T13:31:16.486Z,6.98
2023-03-04T13:34:03.330Z,6.95
2023-03-04T13:37:00.662Z,6.96
2023-03-04T13:39:32.007Z,6.98
2023-03-04T13:41:59.997Z,7.03
2023-03-04T13:45:04.477Z,7.07
2023-03-04T13:47:44.392Z,7.02
2023-03-04T13:50:39.378Z,7.08
2023-03-04T13:53:44.403Z,7.10
2023-03-04T13:56:43.328Z,7.13
2023-03-04T13:59:29.506Z,7.17
2023-03-04T14:02:04.328Z,7.17
2023-03-04T14:04:36.347Z,7.30
2023-03-04T14:07:21.355Z,7.25
2023-03-04T14:09:57.608Z,7.17
2023-03-04T14:12:29.324Z,7.11
2023-03-04T14:15:00.027Z,6.96
2023-03-04T14:17:31.147Z,7.02
2023-03-04T14:20:00.795Z,6.98
2023-03-04T14:22:31.155Z,6.97
2023-03-04T14:25:04.332Z,6.97
2023-03-04T14:27:36.976Z,7.01
2023-03-04T14:30:07.292Z,7.09
2023-03-04T14:32:36.443Z,7.06
2023-03-04T14:35:07.325Z,7.00
2023-03-04T14:37:43.413Z,7.06
2023-03-04T14:40:21.658Z,7.03
2023-03-04T14:43:01.369Z,7.02
2023-03-04T14:45:31.030Z,6.97
2023-03-04T14:48:05.789Z,6.99
2023-03-04T14:50:37.673Z,7.06
2023-03-04T14:53:15.487Z,7.10
2023-03-04T14:55:58.340Z,7.10
2023-03-04T14:58:30.511Z,7.08
2023-03-04T15:01:06.489Z,7.09
2023-03-04T15:03:35.200Z,7.05
2023-03-04T15:06:19.279Z,7.02
2023-03-04T15:08:48.314Z,7.04
2023-03-04T15:11:24.498Z,7.12
2023-03-04T15:13:56.460Z,7.08
2023-03-04T15:16:26.836Z,7.15
2023-03-04T15:18:56.407Z,7.06
2023-03-04T15:21:34.905Z,7.13
2023-03-04T15:24:03.653Z,7.13
2023-03-04T15:26:32.584Z,7.02
2023-03-04T15:29:05.024Z,7.08
2023-03-04T15:31:32.573Z,7.06
2023-03-04T15:34:00.818Z,6.98
2023-03-04T15:36:28.340Z,6.98
2023-03-04T15:39:01.324Z,7.01
2023-03-04T15:41:29.635Z,7.01
2023-03-04T15:43:57.231Z,6.94
2023-03-04T15:46:26.152Z,6.95
2023-03-04T15:48:53.755Z,6.92
2023-03-04T15:51:23.378Z,6.88
2023-03-04T15:53:52.461Z,6.91
2023-03-04T15:56:22.136Z,6.94
2023-03-04T15:58:55.064Z,6.90
2023-03-04T16:01:25.356Z,6.86
2023-03-04T16:03:54.927Z,6.84
2023-03-04T16:06:27.326Z,6.85
2023-03-04T16:08:54.883Z,6.87
2023-03-04T16:11:25.002Z,6.87
2023-03-04T16:13:52.995Z,6.97
2023-03-04T16:19:13.683Z,6.79
2023-03-04T16:21:41.728Z,6.78
2023-03-04T16:24:16.812Z,6.71
2023-03-04T16:26:44.336Z,6.74
2023-03-04T16:29:12.368Z,6.74
2023-03-04T16:31:39.940Z,6.63
2023-03-04T16:34:07.626Z,6.62
2023-03-04T16:36:36.950Z,6.69
2023-03-04T16:39:10.949Z,6.50
2023-03-04T16:41:38.785Z,6.32
2023-03-04T16:44:09.008Z,6.18
2023-03-04T16:46:37.373Z,6.14
2023-03-04T16:49:05.776Z,6.09
2023-03-04T16:51:40.627Z,6.02
2023-03-04T16:54:15.491Z,5.98
2023-03-04T16:56:43.058Z,5.93
2023-03-04T16:59:18.319Z,5.89
2023-03-04T17:01:46.573Z,5.89
2023-03-04T17:04:14.493Z,5.82
2023-03-04T17:06:45.385Z,5.78
2023-03-04T17:09:13.848Z,5.75
2023-03-04T17:11:41.502Z,5.72
2023-03-04T17:14:09.316Z,5.60
2023-03-04T17:16:36.966Z,5.62
2023-03-04T17:19:04.545Z,5.65
2023-03-04T17:21:32.380Z,5.65
2023-03-04T17:24:03.026Z,5.66
2023-03-04T17:26:31.337Z,5.66
2023-03-04T17:28:58.924Z,5.69
2023-03-04T17:31:26.622Z,5.65
2023-03-04T17:33:54.853Z,5.65
2023-03-04T17:36:22.512Z,5.57
2023-03-04T17:38:51.960Z,5.58
2023-03-04T17:41:21.957Z,5.56
2023-03-04T17:43:51.047Z,5.51
2023-03-04T17:46:20.922Z,5.50
2023-03-04T17:48:48.773Z,5.51
2023-03-04T17:51:16.293Z,5.46
2023-03-04T17:53:43.840Z,5.46
2023-03-04T17:56:12.612Z,5.48
2023-03-04T17:58:41.979Z,5.49
2023-03-04T18:01:17.566Z,5.45
2023-03-04T18:03:45.184Z,5.41
2023-03-04T18:06:14.677Z,5.44
2023-03-04T18:08:42.321Z,5.43
2023-03-04T18:11:10.184Z,5.42
2023-03-04T18:13:39.030Z,5.43
2023-03-04T18:16:11.684Z,5.48
2023-03-04T18:18:40.676Z,5.39
2023-03-04T18:21:08.589Z,5.34
2023-03-04T18:23:37.828Z,5.34
2023-03-04T18:26:05.406Z,5.37
2023-03-04T18:28:33.801Z,5.27
2023-03-04T18:31:01.708Z,5.22
2023-03-04T18:33:32.413Z,5.20
2023-03-04T18:36:03.962Z,5.13
2023-03-04T18:38:32.312Z,5.16
2023-03-04T18:41:00.963Z,5.06
2023-03-04T18:43:28.864Z,5.14
2023-03-04T18:46:05.313Z,5.02
2023-03-04T18:49:03.184Z,5.01
2023-03-04T18:51:31.348Z,4.97
2023-03-04T18:53:59.778Z,4.91
2023-03-04T18:56:37.520Z,4.96
2023-03-04T18:59:07.353Z,4.93
2023-03-04T19:01:35.264Z,4.92
2023-03-04T19:04:05.591Z,4.92
2023-03-04T19:06:34.566Z,4.95
2023-03-04T19:09:03.477Z,4.97
2023-03-04T19:11:31.578Z,4.93
2023-03-04T19:13:59.336Z,4.97
2023-03-04T19:16:27.042Z,4.96
2023-03-04T19:18:54.815Z,4.69
2023-03-04T19:21:23.632Z,4.78
2023-03-04T19:23:51.384Z,4.79
2023-03-04T19:26:19.028Z,4.78
2023-03-04T19:28:46.524Z,4.76
2023-03-04T19:31:14.175Z,4.79
2023-03-04T19:33:42.347Z,4.75
2023-03-04T19:36:10.544Z,4.77
2023-03-04T19:38:40.075Z,4.78
2023-03-04T19:41:11.938Z,4.76
2023-03-04T19:43:39.645Z,4.79
2023-03-04T19:46:08.841Z,4.74
2023-03-04T19:48:37.724Z,4.73
2023-03-04T19:51:14.002Z,4.72
2023-03-04T19:53:45.329Z,4.70
2023-03-04T19:56:18.403Z,4.73
2023-03-04T19:58:47.001Z,4.71
2023-03-04T20:01:27.444Z,4.74
2023-03-04T20:03:55.692Z,4.71
2023-03-04T20:06:23.807Z,4.72
2023-03-04T20:08:53.044Z,4.70
2023-03-04T20:11:20.582Z,4.67
2023-03-04T20:13:48.156Z,4.66
2023-03-04T20:16:15.755Z,4.70
2023-03-04T20:18:43.998Z,4.61
2023-03-04T20:21:12.611Z,4.58
2023-03-04T20:23:40.790Z,4.62
2023-03-04T20:26:09.642Z,4.61
2023-03-04T20:28:50.058Z,4.58
2023-03-04T20:31:21.577Z,4.55
2023-03-04T20:33:50.985Z,4.53
2023-03-04T20:36:19.588Z,4.53
2023-03-04T20:38:48.293Z,4.55
2023-03-04T20:41:17.664Z,4.49
2023-03-04T20:43:49.065Z,4.51
2023-03-04T20:46:32.253Z,4.49
2023-03-04T20:49:02.021Z,4.46
2023-03-04T20:51:30.452Z,4.48
2023-03-04T20:53:59.329Z,4.43
2023-03-04T20:56:29.144Z,4.42
2023-03-04T20:58:58.341Z,4.42
2023-03-04T21:01:26.717Z,4.43
2023-03-04T21:03:54.336Z,4.44
2023-03-04T21:06:25.086Z,4.42
2023-03-04T21:08:52.780Z,4.39
2023-03-04T21:11:20.745Z,4.41
2023-03-04T21:13:55.836Z,4.39
2023-03-04T21:16:27.445Z,4.41
2023-03-04T21:18:54.982Z,4.43
2023-03-04T21:21:24.735Z,4.43
2023-03-04T21:23:55.512Z,4.43
2023-03-04T21:26:24.308Z,4.44
2023-03-04T21:28:54.084Z,4.45
2023-03-04T21:31:24.321Z,4.43
2023-03-04T21:33:53.642Z,4.43
2023-03-04T21:36:21.801Z,4.43
2023-03-04T21:38:49.759Z,4.42
2023-03-04T21:41:19.588Z,4.42
2023-03-04T21:43:47.194Z,4.43
2023-03-04T21:46:17.654Z,4.44
2023-03-04T21:48:47.442Z,4.44
2023-03-04T21:51:17.433Z,4.43
2023-03-04T21:53:45.900Z,4.41
2023-03-04T21:56:14.071Z,4.40
2023-03-04T21:58:42.553Z,4.40
2023-03-04T22:01:11.448Z,4.38
2023-03-04T22:03:40.578Z,4.38
2023-03-04T22:06:10.172Z,4.36
2023-03-04T22:08:38.711Z,4.39
2023-03-04T22:11:07.705Z,4.40
2023-03-04T22:13:35.603Z,4.41
2023-03-04T22:16:03.277Z,4.38
2023-03-04T22:18:31.738Z,4.38
2023-03-04T22:21:04.434Z,4.39
2023-03-04T22:23:33.443Z,4.38
2023-03-04T22:26:03.342Z,4.38
2023-03-04T22:28:31.658Z,4.36
2023-03-04T22:30:59.836Z,4.36
2023-03-04T22:33:28.419Z,4.36
2023-03-04T22:35:56.152Z,4.35
2023-03-04T22:38:25.061Z,4.34
2023-03-04T22:40:53.396Z,4.34
2023-03-04T22:43:21.152Z,4.31
2023-03-04T22:45:49.409Z,4.29
2023-03-04T22:48:16.956Z,4.27
2023-03-04T22:50:44.447Z,4.28
2023-03-04T22:53:11.952Z,4.28
2023-03-04T22:55:40.800Z,4.28
2023-03-04T22:58:08.439Z,4.28
2023-03-04T23:00:38.033Z,4.29
2023-03-04T23:03:06.318Z,4.29
2023-03-04T23:05:34.387Z,4.27
2023-03-04T23:08:01.897Z,4.27
2023-03-04T23:10:29.717Z,4.26
2023-03-04T23:15:51.364Z,4.25
2023-03-04T23:18:19.054Z,4.23
2023-03-04T23:20:47.445Z,4.22
2023-03-04T23:23:15.800Z,4.22
2023-03-04T23:25:43.408Z,4.19
2023-03-04T23:28:13.555Z,4.20
2023-03-04T23:30:41.179Z,4.16
2023-03-04T23:33:08.647Z,4.15
2023-03-04T23:35:36.333Z,4.15
2023-03-04T23:38:03.839Z,4.15
2023-03-04T23:40:33.377Z,4.16
2023-03-04T23:43:03.782Z,4.14
2023-03-04T23:45:33.244Z,4.12
2023-03-04T23:48:01.437Z,4.12
2023-03-04T23:50:29.046Z,4.12
2023-03-04T23:52:57.436Z,4.10
2023-03-04T23:55:24.926Z,4.08
2023-03-04T23:57:52.440Z,4.11
